FLX9911 SBBE-SBSN
Flight info
| Callsign | FLX9911 |
|---|---|
| Flight time | 1h 3m |
| Altitude | 30000 |
| Route | PAKUT DCT NUVUG |
| Aircraft | B738/M-SDE2E3FGHIRWXY/LB1 |
Departure
| Time | 2026-05-09 19:31 |
|---|---|
| Airport | Val de Cans/Júlio Cezar Ribeiro International Airport (SBBE) |
Arrival
| Time | 2026-05-09 20:34 |
|---|---|
| Airport | Santarém - Maestro Wilson Fonseca International Airport (SBSN) |
| Time | Latitude | Longitude | Altitude | Speed | Heading |
|---|---|---|---|---|---|
| 2026-05-09 18:56 | -1.39042 | -48.47894 | 42 ft | 0 kts | 275° |
| 2026-05-09 19:22 | -1.39042 | -48.47891 | 42 ft | 3 kts | 275° |
| 2026-05-09 19:22 | -1.39044 | -48.47865 | 42 ft | 4 kts | 275° |
| 2026-05-09 19:23 | -1.39047 | -48.47841 | 42 ft | 4 kts | 295° |
| 2026-05-09 19:23 | -1.39064 | -48.47827 | 38 ft | 4 kts | 356° |
| 2026-05-09 19:23 | -1.39082 | -48.47827 | 39 ft | 1 kts | 5° |
| 2026-05-09 19:23 | -1.39085 | -48.47828 | 39 ft | 0 kts | 5° |
| 2026-05-09 19:26 | -1.39081 | -48.47827 | 40 ft | 2 kts | 5° |
| 2026-05-09 19:26 | -1.39054 | -48.47825 | 42 ft | 6 kts | 4° |
| 2026-05-09 19:27 | -1.38999 | -48.47821 | 42 ft | 10 kts | 5° |
| 2026-05-09 19:27 | -1.38920 | -48.47814 | 42 ft | 13 kts | 5° |
| 2026-05-09 19:27 | -1.38819 | -48.47805 | 42 ft | 16 kts | 5° |
| 2026-05-09 19:27 | -1.38711 | -48.47795 | 42 ft | 12 kts | 5° |
| 2026-05-09 19:28 | -1.38670 | -48.47853 | 42 ft | 13 kts | 269° |
| 2026-05-09 19:28 | -1.38671 | -48.47954 | 42 ft | 16 kts | 269° |
| 2026-05-09 19:28 | -1.38674 | -48.48071 | 43 ft | 18 kts | 268° |
| 2026-05-09 19:28 | -1.38678 | -48.48201 | 43 ft | 19 kts | 264° |
| 2026-05-09 19:29 | -1.38764 | -48.48309 | 43 ft | 21 kts | 225° |
| 2026-05-09 19:29 | -1.38808 | -48.48362 | 43 ft | 0 kts | 247° |
| 2026-05-09 19:29 | -1.38810 | -48.48367 | 43 ft | 3 kts | 251° |
| 2026-05-09 19:29 | -1.38816 | -48.48399 | 43 ft | 7 kts | 264° |
| 2026-05-09 19:30 | -1.38814 | -48.48459 | 42 ft | 10 kts | 291° |
| 2026-05-09 19:30 | -1.38740 | -48.48439 | 42 ft | 27 kts | 44° |
| 2026-05-09 19:30 | -1.38396 | -48.48091 | 42 ft | 113 kts | 45° |
| 2026-05-09 19:30 | -1.37668 | -48.47355 | 119 ft | 177 kts | 44° |
| 2026-05-09 19:31 | -1.36729 | -48.46432 | 861 ft | 195 kts | 44° |
| 2026-05-09 19:31 | -1.35787 | -48.45510 | 2183 ft | 187 kts | 39° |
| 2026-05-09 19:31 | -1.34483 | -48.45098 | 2814 ft | 216 kts | 358° |
| 2026-05-09 19:31 | -1.33032 | -48.45714 | 3041 ft | 246 kts | 317° |
| 2026-05-09 19:32 | -1.32226 | -48.47253 | 3436 ft | 263 kts | 279° |
| 2026-05-09 19:32 | -1.32482 | -48.49093 | 3816 ft | 276 kts | 243° |
| 2026-05-09 19:32 | -1.33381 | -48.50813 | 4583 ft | 282 kts | 243° |
| 2026-05-09 19:32 | -1.34122 | -48.52653 | 5433 ft | 287 kts | 249° |
| 2026-05-09 19:33 | -1.34746 | -48.54564 | 6313 ft | 291 kts | 251° |
| 2026-05-09 19:33 | -1.35330 | -48.56501 | 7127 ft | 293 kts | 252° |
| 2026-05-09 19:33 | -1.36038 | -48.58426 | 7902 ft | 296 kts | 236° |
| 2026-05-09 19:33 | -1.37399 | -48.59943 | 8711 ft | 295 kts | 220° |
| 2026-05-09 19:34 | -1.38894 | -48.61390 | 9478 ft | 301 kts | 223° |
| 2026-05-09 19:34 | -1.40377 | -48.62888 | 10183 ft | 307 kts | 224° |
| 2026-05-09 19:34 | -1.41927 | -48.64467 | 10427 ft | 331 kts | 225° |
| 2026-05-09 19:34 | -1.43516 | -48.66238 | 10602 ft | 354 kts | 227° |
| 2026-05-09 19:35 | -1.45157 | -48.68188 | 10758 ft | 376 kts | 233° |
| 2026-05-09 19:35 | -1.46276 | -48.70589 | 11103 ft | 389 kts | 257° |
| 2026-05-09 19:35 | -1.46586 | -48.73284 | 11715 ft | 392 kts | 266° |
| 2026-05-09 19:35 | -1.46745 | -48.75982 | 12325 ft | 395 kts | 266° |
| 2026-05-09 19:36 | -1.46912 | -48.78729 | 12897 ft | 400 kts | 266° |
| 2026-05-09 19:36 | -1.47088 | -48.81517 | 13474 ft | 403 kts | 266° |
| 2026-05-09 19:36 | -1.47275 | -48.84330 | 14003 ft | 407 kts | 266° |
| 2026-05-09 19:36 | -1.47470 | -48.87156 | 14511 ft | 410 kts | 266° |
| 2026-05-09 19:37 | -1.47671 | -48.90008 | 15029 ft | 412 kts | 266° |
| 2026-05-09 19:37 | -1.47875 | -48.92872 | 15529 ft | 415 kts | 266° |
| 2026-05-09 19:37 | -1.48082 | -48.95766 | 16017 ft | 419 kts | 266° |
| 2026-05-09 19:37 | -1.48291 | -48.98690 | 16497 ft | 422 kts | 267° |
| 2026-05-09 19:38 | -1.48500 | -49.01618 | 16976 ft | 425 kts | 267° |
| 2026-05-09 19:38 | -1.48640 | -49.03580 | 17291 ft | 426 kts | 267° |
| 2026-05-09 19:38 | -1.48923 | -49.07551 | 17908 ft | 430 kts | 267° |
| 2026-05-09 19:38 | -1.49064 | -49.09531 | 18201 ft | 432 kts | 267° |
| 2026-05-09 19:39 | -1.49279 | -49.12542 | 18572 ft | 435 kts | 267° |
| 2026-05-09 19:39 | -1.49512 | -49.16563 | 19075 ft | 438 kts | 269° |
| 2026-05-09 19:39 | -1.49573 | -49.18612 | 19318 ft | 440 kts | 270° |
| 2026-05-09 19:39 | -1.49652 | -49.22684 | 19793 ft | 443 kts | 270° |
| 2026-05-09 19:40 | -1.49689 | -49.24769 | 20028 ft | 445 kts | 270° |
| 2026-05-09 19:40 | -1.49754 | -49.27875 | 20376 ft | 448 kts | 270° |
| 2026-05-09 19:40 | -1.49828 | -49.30990 | 20708 ft | 451 kts | 270° |
| 2026-05-09 19:40 | -1.49911 | -49.34122 | 21038 ft | 453 kts | 269° |
| 2026-05-09 19:41 | -1.49998 | -49.37290 | 21368 ft | 456 kts | 269° |
| 2026-05-09 19:41 | -1.50086 | -49.40462 | 21690 ft | 458 kts | 269° |
| 2026-05-09 19:41 | -1.50174 | -49.43657 | 21990 ft | 460 kts | 269° |
| 2026-05-09 19:41 | -1.50262 | -49.46867 | 22293 ft | 463 kts | 269° |
| 2026-05-09 19:42 | -1.50399 | -49.50091 | 22585 ft | 466 kts | 266° |
| 2026-05-09 19:42 | -1.50768 | -49.53313 | 22865 ft | 468 kts | 262° |
| 2026-05-09 19:42 | -1.51269 | -49.56539 | 23147 ft | 471 kts | 261° |
| 2026-05-09 19:42 | -1.51808 | -49.59768 | 23410 ft | 473 kts | 261° |
| 2026-05-09 19:43 | -1.52341 | -49.63020 | 23645 ft | 475 kts | 261° |
| 2026-05-09 19:43 | -1.52852 | -49.66287 | 23898 ft | 476 kts | 262° |
| 2026-05-09 19:43 | -1.53343 | -49.69559 | 24161 ft | 476 kts | 262° |
| 2026-05-09 19:43 | -1.53819 | -49.72833 | 24426 ft | 477 kts | 262° |
| 2026-05-09 19:44 | -1.54290 | -49.76115 | 24657 ft | 478 kts | 262° |
| 2026-05-09 19:44 | -1.54759 | -49.79406 | 24889 ft | 479 kts | 262° |
| 2026-05-09 19:44 | -1.55230 | -49.82705 | 25122 ft | 480 kts | 262° |
| 2026-05-09 19:44 | -1.55703 | -49.86008 | 25341 ft | 481 kts | 262° |
| 2026-05-09 19:45 | -1.56178 | -49.89315 | 25576 ft | 481 kts | 262° |
| 2026-05-09 19:45 | -1.56654 | -49.92633 | 25798 ft | 482 kts | 262° |
| 2026-05-09 19:45 | -1.57125 | -49.95911 | 26014 ft | 483 kts | 262° |
| 2026-05-09 19:45 | -1.57602 | -49.99234 | 26217 ft | 484 kts | 262° |
| 2026-05-09 19:46 | -1.58082 | -50.02575 | 26406 ft | 486 kts | 262° |
| 2026-05-09 19:46 | -1.58573 | -50.05919 | 26594 ft | 487 kts | 261° |
| 2026-05-09 19:46 | -1.59214 | -50.09250 | 26783 ft | 488 kts | 258° |
| 2026-05-09 19:46 | -1.59977 | -50.12558 | 26985 ft | 489 kts | 257° |
| 2026-05-09 19:47 | -1.60790 | -50.15869 | 27182 ft | 490 kts | 256° |
| 2026-05-09 19:47 | -1.61610 | -50.19180 | 27369 ft | 491 kts | 256° |
| 2026-05-09 19:47 | -1.62417 | -50.22494 | 27548 ft | 492 kts | 257° |
| 2026-05-09 19:47 | -1.63209 | -50.25820 | 27724 ft | 493 kts | 257° |
| 2026-05-09 19:48 | -1.63990 | -50.29159 | 27897 ft | 493 kts | 257° |
| 2026-05-09 19:48 | -1.64766 | -50.32509 | 28081 ft | 494 kts | 257° |
| 2026-05-09 19:48 | -1.65533 | -50.35844 | 28324 ft | 493 kts | 257° |
| 2026-05-09 19:48 | -1.66300 | -50.39178 | 28639 ft | 491 kts | 257° |
| 2026-05-09 19:49 | -1.67062 | -50.42493 | 28949 ft | 488 kts | 257° |
| 2026-05-09 19:49 | -1.67812 | -50.45752 | 29275 ft | 486 kts | 257° |
| 2026-05-09 19:49 | -1.68570 | -50.49041 | 29579 ft | 484 kts | 257° |
| 2026-05-09 19:49 | -1.69326 | -50.52317 | 29873 ft | 483 kts | 257° |
| 2026-05-09 19:50 | -1.70835 | -50.58862 | 29894 ft | 484 kts | 257° |
| 2026-05-09 19:50 | -1.72347 | -50.65417 | 29895 ft | 482 kts | 257° |
| 2026-05-09 19:51 | -1.73851 | -50.71941 | 29892 ft | 481 kts | 257° |
| 2026-05-09 19:51 | -1.75349 | -50.78442 | 29894 ft | 480 kts | 257° |
| 2026-05-09 19:52 | -1.76839 | -50.84910 | 29891 ft | 480 kts | 257° |
| 2026-05-09 19:52 | -1.78337 | -50.91411 | 29895 ft | 480 kts | 257° |
| 2026-05-09 19:53 | -1.79836 | -50.97918 | 29895 ft | 480 kts | 257° |
| 2026-05-09 19:53 | -1.81076 | -51.04481 | 29892 ft | 480 kts | 261° |
| 2026-05-09 19:54 | -1.82098 | -51.11086 | 29889 ft | 481 kts | 261° |
| 2026-05-09 19:54 | -1.83128 | -51.17697 | 29895 ft | 481 kts | 261° |
| 2026-05-09 19:55 | -1.84195 | -51.24297 | 29894 ft | 481 kts | 261° |
| 2026-05-09 19:56 | -1.85823 | -51.34176 | 29893 ft | 481 kts | 261° |
| 2026-05-09 19:56 | -1.86911 | -51.40777 | 29892 ft | 481 kts | 261° |
| 2026-05-09 19:57 | -1.87997 | -51.47377 | 29893 ft | 481 kts | 261° |
| 2026-05-09 19:57 | -1.89081 | -51.53968 | 29893 ft | 480 kts | 261° |
| 2026-05-09 19:58 | -1.90164 | -51.60552 | 29893 ft | 480 kts | 261° |
| 2026-05-09 19:58 | -1.91246 | -51.67135 | 29895 ft | 479 kts | 261° |
| 2026-05-09 19:59 | -1.92320 | -51.73674 | 29886 ft | 479 kts | 261° |
| 2026-05-09 19:59 | -1.93399 | -51.80241 | 29890 ft | 478 kts | 261° |
| 2026-05-09 20:00 | -1.94477 | -51.86802 | 29894 ft | 478 kts | 261° |
| 2026-05-09 20:00 | -1.95551 | -51.93346 | 29892 ft | 478 kts | 261° |
| 2026-05-09 20:01 | -1.96626 | -51.99892 | 29897 ft | 477 kts | 261° |
| 2026-05-09 20:01 | -1.97702 | -52.06449 | 29886 ft | 477 kts | 261° |
| 2026-05-09 20:02 | -1.98775 | -52.12990 | 29897 ft | 476 kts | 261° |
| 2026-05-09 20:02 | -1.99846 | -52.19521 | 29901 ft | 476 kts | 261° |
| 2026-05-09 20:03 | -2.01452 | -52.29311 | 29892 ft | 476 kts | 261° |
| 2026-05-09 20:03 | -2.02521 | -52.35836 | 29892 ft | 476 kts | 261° |
| 2026-05-09 20:04 | -2.03593 | -52.42373 | 29891 ft | 476 kts | 261° |
| 2026-05-09 20:04 | -2.04662 | -52.48900 | 29893 ft | 476 kts | 261° |
| 2026-05-09 20:05 | -2.05733 | -52.55439 | 29891 ft | 476 kts | 261° |
| 2026-05-09 20:05 | -2.06796 | -52.61927 | 29894 ft | 476 kts | 261° |
| 2026-05-09 20:06 | -2.07871 | -52.68497 | 29892 ft | 476 kts | 261° |
| 2026-05-09 20:06 | -2.08931 | -52.74976 | 29892 ft | 476 kts | 261° |
| 2026-05-09 20:07 | -2.10001 | -52.81510 | 29898 ft | 476 kts | 261° |
| 2026-05-09 20:07 | -2.11067 | -52.88032 | 29898 ft | 475 kts | 261° |
| 2026-05-09 20:08 | -2.12666 | -52.97805 | 29891 ft | 475 kts | 261° |
| 2026-05-09 20:09 | -2.13731 | -53.04322 | 29890 ft | 474 kts | 261° |
| 2026-05-09 20:09 | -2.14794 | -53.10828 | 29894 ft | 474 kts | 261° |
| 2026-05-09 20:10 | -2.15857 | -53.17333 | 29890 ft | 473 kts | 261° |
| 2026-05-09 20:10 | -2.16917 | -53.23822 | 29889 ft | 473 kts | 261° |
| 2026-05-09 20:11 | -2.17970 | -53.30272 | 29888 ft | 472 kts | 261° |
| 2026-05-09 20:11 | -2.19028 | -53.36752 | 29887 ft | 472 kts | 261° |
| 2026-05-09 20:12 | -2.20085 | -53.43228 | 29883 ft | 472 kts | 261° |
| 2026-05-09 20:12 | -2.21147 | -53.49738 | 29882 ft | 471 kts | 261° |
| 2026-05-09 20:13 | -2.22194 | -53.56160 | 29883 ft | 471 kts | 261° |
| 2026-05-09 20:13 | -2.23248 | -53.62623 | 29752 ft | 472 kts | 261° |
| 2026-05-09 20:13 | -2.23782 | -53.65899 | 28890 ft | 477 kts | 261° |
| 2026-05-09 20:14 | -2.24313 | -53.69155 | 28033 ft | 475 kts | 261° |
| 2026-05-09 20:14 | -2.24845 | -53.72421 | 27108 ft | 476 kts | 261° |
| 2026-05-09 20:14 | -2.25372 | -53.75654 | 26161 ft | 478 kts | 261° |
| 2026-05-09 20:14 | -2.25915 | -53.78991 | 25112 ft | 483 kts | 261° |
| 2026-05-09 20:15 | -2.26454 | -53.82300 | 24366 ft | 480 kts | 261° |
| 2026-05-09 20:15 | -2.26897 | -53.85554 | 23451 ft | 477 kts | 264° |
| 2026-05-09 20:15 | -2.27215 | -53.88882 | 22063 ft | 475 kts | 266° |
| 2026-05-09 20:15 | -2.27456 | -53.92117 | 21369 ft | 469 kts | 266° |
| 2026-05-09 20:16 | -2.27683 | -53.95369 | 20610 ft | 466 kts | 266° |
| 2026-05-09 20:16 | -2.27911 | -53.98582 | 19894 ft | 462 kts | 266° |
| 2026-05-09 20:16 | -2.28150 | -54.01777 | 19178 ft | 458 kts | 266° |
| 2026-05-09 20:16 | -2.28398 | -54.04945 | 18462 ft | 456 kts | 266° |
| 2026-05-09 20:17 | -2.28652 | -54.08090 | 17685 ft | 453 kts | 266° |
| 2026-05-09 20:17 | -2.28908 | -54.11210 | 16932 ft | 449 kts | 266° |
| 2026-05-09 20:17 | -2.29163 | -54.14298 | 16220 ft | 444 kts | 266° |
| 2026-05-09 20:17 | -2.29417 | -54.17371 | 15510 ft | 440 kts | 265° |
| 2026-05-09 20:18 | -2.29668 | -54.20412 | 14806 ft | 437 kts | 265° |
| 2026-05-09 20:18 | -2.29916 | -54.23420 | 14115 ft | 433 kts | 265° |
| 2026-05-09 20:18 | -2.30159 | -54.26375 | 13403 ft | 420 kts | 265° |
| 2026-05-09 20:18 | -2.30397 | -54.29260 | 12695 ft | 411 kts | 265° |
| 2026-05-09 20:19 | -2.30629 | -54.32090 | 12031 ft | 408 kts | 265° |
| 2026-05-09 20:19 | -2.30861 | -54.34910 | 11389 ft | 406 kts | 265° |
| 2026-05-09 20:19 | -2.31067 | -54.37411 | 11161 ft | 394 kts | 265° |
| 2026-05-09 20:19 | -2.31288 | -54.40110 | 10940 ft | 382 kts | 265° |
| 2026-05-09 20:20 | -2.31501 | -54.42706 | 10778 ft | 369 kts | 265° |
| 2026-05-09 20:20 | -2.31707 | -54.45216 | 10623 ft | 357 kts | 264° |
| 2026-05-09 20:20 | -2.31907 | -54.47657 | 10469 ft | 347 kts | 264° |
| 2026-05-09 20:20 | -2.32102 | -54.50027 | 10327 ft | 335 kts | 264° |
| 2026-05-09 20:21 | -2.32287 | -54.52290 | 10179 ft | 319 kts | 264° |
| 2026-05-09 20:21 | -2.32467 | -54.54474 | 10062 ft | 311 kts | 264° |
| 2026-05-09 20:21 | -2.32642 | -54.56607 | 9931 ft | 310 kts | 264° |
| 2026-05-09 20:21 | -2.32819 | -54.58758 | 9695 ft | 313 kts | 264° |
| 2026-05-09 20:22 | -2.32999 | -54.60940 | 9369 ft | 314 kts | 264° |
| 2026-05-09 20:22 | -2.33179 | -54.63135 | 9041 ft | 313 kts | 264° |
| 2026-05-09 20:22 | -2.33354 | -54.65270 | 8723 ft | 311 kts | 264° |
| 2026-05-09 20:22 | -2.33531 | -54.67423 | 8408 ft | 309 kts | 264° |
| 2026-05-09 20:23 | -2.33704 | -54.69534 | 8080 ft | 301 kts | 264° |
| 2026-05-09 20:23 | -2.33874 | -54.71611 | 7785 ft | 298 kts | 264° |
| 2026-05-09 20:23 | -2.34043 | -54.73671 | 7478 ft | 298 kts | 264° |
| 2026-05-09 20:23 | -2.34212 | -54.75734 | 7172 ft | 297 kts | 264° |
| 2026-05-09 20:24 | -2.34380 | -54.77787 | 6934 ft | 294 kts | 264° |
| 2026-05-09 20:24 | -2.34548 | -54.79834 | 6493 ft | 299 kts | 264° |
| 2026-05-09 20:24 | -2.34718 | -54.81911 | 6090 ft | 299 kts | 264° |
| 2026-05-09 20:24 | -2.34886 | -54.83967 | 5748 ft | 292 kts | 264° |
| 2026-05-09 20:25 | -2.34994 | -54.85292 | 5580 ft | 286 kts | 264° |
| 2026-05-09 20:25 | -2.35154 | -54.87250 | 5398 ft | 281 kts | 264° |
| 2026-05-09 20:25 | -2.35366 | -54.89834 | 5103 ft | 274 kts | 264° |
| 2026-05-09 20:25 | -2.35519 | -54.91703 | 4862 ft | 265 kts | 264° |
| 2026-05-09 20:26 | -2.35617 | -54.92901 | 4715 ft | 258 kts | 264° |
| 2026-05-09 20:26 | -2.35759 | -54.94649 | 4496 ft | 245 kts | 264° |
| 2026-05-09 20:26 | -2.35894 | -54.96294 | 4303 ft | 231 kts | 265° |
| 2026-05-09 20:26 | -2.36028 | -54.97841 | 4200 ft | 215 kts | 261° |
| 2026-05-09 20:27 | -2.36599 | -54.99157 | 4069 ft | 202 kts | 221° |
| 2026-05-09 20:27 | -2.37742 | -54.99828 | 4042 ft | 187 kts | 191° |
| 2026-05-09 20:27 | -2.39011 | -54.99923 | 3961 ft | 181 kts | 167° |
| 2026-05-09 20:27 | -2.40166 | -54.99513 | 3884 ft | 174 kts | 146° |
| 2026-05-09 20:28 | -2.41214 | -54.98908 | 3817 ft | 174 kts | 148° |
| 2026-05-09 20:28 | -2.42282 | -54.98324 | 3741 ft | 175 kts | 147° |
| 2026-05-09 20:28 | -2.43336 | -54.97745 | 3543 ft | 170 kts | 147° |
| 2026-05-09 20:29 | -2.44499 | -54.96098 | 3274 ft | 150 kts | 83° |
| 2026-05-09 20:29 | -2.44428 | -54.95085 | 3102 ft | 142 kts | 93° |
| 2026-05-09 20:29 | -2.44465 | -54.94092 | 2891 ft | 140 kts | 88° |
| 2026-05-09 20:29 | -2.44414 | -54.93122 | 2698 ft | 140 kts | 85° |
| 2026-05-09 20:30 | -2.44308 | -54.92159 | 2516 ft | 139 kts | 82° |
| 2026-05-09 20:30 | -2.44165 | -54.91190 | 2347 ft | 142 kts | 82° |
| 2026-05-09 20:30 | -2.44015 | -54.90228 | 2139 ft | 141 kts | 81° |
| 2026-05-09 20:30 | -2.43859 | -54.89263 | 1963 ft | 139 kts | 81° |
| 2026-05-09 20:31 | -2.43706 | -54.88321 | 1771 ft | 137 kts | 81° |
| 2026-05-09 20:31 | -2.43552 | -54.87382 | 1622 ft | 139 kts | 81° |
| 2026-05-09 20:31 | -2.43396 | -54.86419 | 1417 ft | 139 kts | 81° |
| 2026-05-09 20:31 | -2.43244 | -54.85476 | 1233 ft | 136 kts | 81° |
| 2026-05-09 20:32 | -2.43090 | -54.84529 | 1055 ft | 139 kts | 81° |
| 2026-05-09 20:32 | -2.42936 | -54.83579 | 881 ft | 139 kts | 81° |
| 2026-05-09 20:32 | -2.42784 | -54.82639 | 689 ft | 136 kts | 81° |
| 2026-05-09 20:32 | -2.42633 | -54.81709 | 520 ft | 136 kts | 79° |
| 2026-05-09 20:33 | -2.42480 | -54.80777 | 334 ft | 139 kts | 80° |
| 2026-05-09 20:33 | -2.42328 | -54.79816 | 214 ft | 136 kts | 79° |
| 2026-05-09 20:33 | -2.42199 | -54.79042 | 213 ft | 84 kts | 81° |
| 2026-05-09 20:33 | -2.42129 | -54.78632 | 216 ft | 50 kts | 80° |
| 2026-05-09 20:34 | -2.42085 | -54.78361 | 210 ft | 29 kts | 80° |
| 2026-05-09 20:34 | -2.42114 | -54.78247 | 212 ft | 14 kts | 180° |
| 2026-05-09 20:34 | -2.42204 | -54.78274 | 208 ft | 13 kts | 207° |
| 2026-05-09 20:34 | -2.42280 | -54.78319 | 207 ft | 13 kts | 229° |
| 2026-05-09 20:35 | -2.42297 | -54.78403 | 205 ft | 12 kts | 267° |
| 2026-05-09 20:35 | -2.42308 | -54.78487 | 209 ft | 12 kts | 254° |
| 2026-05-09 20:35 | -2.42341 | -54.78562 | 207 ft | 12 kts | 235° |
| 2026-05-09 20:35 | -2.42383 | -54.78591 | 208 ft | 4 kts | 162° |
| 2026-05-09 20:36 | -2.42395 | -54.78577 | 209 ft | 2 kts | 130° |
| 2026-05-09 20:36 | -2.42405 | -54.78567 | 205 ft | 1 kts | 131° |
| 2026-05-09 20:36 | -2.42406 | -54.78565 | 205 ft | 0 kts | 131° |